Terminal Aerodrome Forecast
Issued by NWS Jackson, KY

Home | Current Version | Previous Version | Text Only | Print | Product List | Glossary On
Versions: 1 2 3 4 5 6 7 8 9 10 11 12 13 14 15 16 17 18 19 20 21 22 23 24 25 26 27 28 29 30 31 32 33 34 35
000
FTUS43 KJKL 212000 AAA
TAFJKL
TAF AMD
KJKL 212026Z 2120/2218 23006KT P6SM VCTS SCT020CB BKN040
      TEMPO 2120/2122 1SM TSRA BR BKN020CB
     FM220600 VRB03KT 4SM BR VCSH SCT040
     FM221400 25007KT P6SM BKN030=

USA.gov is the U.S. government's official web portal to all federal, state and local government web resources and services.